Time;durP1;ratioP1;P1;durP2;ratioP2;P2;SDS_P1;SDS_P2;PMS_P1;PMS_P2;Temp;Humidity;BMP_temperature;BMP_pressure;BME280_temperature;BME280_humidity;BME280_pressure;Samples;Min_cycle;Max_cycle;Signal;HPM_P1;HPM_P2
2023/12/22 00:00:09;;;;;;;15.57;10.40;;;9.70;59.30;;;;;;348213;28;1090;-57
2023/12/22 00:00:20;;;;;;;15.07;10.40;;;9.70;59.30;;;;;;348263;28;900;-57
2023/12/22 00:00:30;;;;;;;16.10;10.83;;;9.60;59.30;;;;;;348161;28;1387;-57
2023/12/22 00:00:41;;;;;;;16.80;10.90;;;9.60;59.30;;;;;;348192;28;853;-58
2023/12/22 00:00:52;;;;;;;15.60;10.50;;;9.70;59.20;;;;;;348194;28;1350;-57
2023/12/22 00:01:03;;;;;;;17.75;10.00;;;9.60;59.20;;;;;;348247;28;834;-56
2023/12/22 00:01:17;;;;;;;18.00;9.85;;;9.60;59.30;;;;;;348265;28;1074;-58
2023/12/22 00:01:27;;;;;;;21.88;10.48;;;9.60;59.40;;;;;;348139;28;1023;-57
2023/12/22 00:01:38;;;;;;;20.50;10.47;;;9.60;59.40;;;;;;348265;28;767;-57
2023/12/22 00:01:49;;;;;;;17.90;10.02;;;9.60;59.40;;;;;;348261;28;1023;-56
2023/12/22 00:01:59;;;;;;;14.48;9.80;;;9.60;59.40;;;;;;348215;28;988;-59
2023/12/22 00:02:10;;;;;;;17.00;10.05;;;9.60;59.40;;;;;;348228;28;996;-57
2023/12/22 00:02:23;;;;;;;18.65;10.00;;;9.60;59.40;;;;;;348159;28;936;-57
2023/12/22 00:02:34;;;;;;;20.30;10.43;;;9.50;59.40;;;;;;348200;28;1209;-56
2023/12/22 00:02:44;;;;;;;18.50;10.30;;;9.50;59.40;;;;;;348212;28;1075;-57
2023/12/22 00:02:55;;;;;;;16.33;10.02;;;9.50;59.40;;;;;;348217;28;1039;-56
2023/12/22 00:03:06;;;;;;;16.58;10.10;;;9.50;59.40;;;;;;348223;28;1043;-58
2023/12/22 00:03:17;;;;;;;15.52;9.82;;;9.50;59.40;;;;;;348155;28;1099;-57
2023/12/22 00:03:27;;;;;;;15.20;9.83;;;9.50;59.40;;;;;;348257;28;1077;-57
2023/12/22 00:03:38;;;;;;;14.00;9.32;;;9.50;59.40;;;;;;348230;28;968;-57
2023/12/22 00:03:49;;;;;;;13.43;9.48;;;9.50;59.50;;;;;;348210;28;1131;-57
2023/12/22 00:04:00;;;;;;;13.32;9.52;;;9.50;59.50;;;;;;348257;28;953;-56
2023/12/22 00:04:11;;;;;;;12.40;9.38;;;9.40;59.50;;;;;;348167;28;1093;-58
2023/12/22 00:04:22;;;;;;;13.73;9.48;;;9.50;59.50;;;;;;348280;28;885;-56
2023/12/22 00:04:33;;;;;;;13.70;9.40;;;9.40;59.50;;;;;;348238;28;921;-56
2023/12/22 00:04:44;;;;;;;13.25;9.63;;;9.50;59.60;;;;;;348143;28;1897;-57
2023/12/22 00:04:54;;;;;;;13.00;10.07;;;9.40;59.60;;;;;;348203;28;1158;-56
2023/12/22 00:05:06;;;;;;;12.82;9.95;;;9.40;59.70;;;;;;348163;28;1028;-56
2023/12/22 00:05:16;;;;;;;13.00;9.90;;;9.40;59.60;;;;;;348241;28;1091;-57
2023/12/22 00:05:27;;;;;;;13.35;9.57;;;9.40;59.70;;;;;;348220;28;1091;-56
2023/12/22 00:05:38;;;;;;;13.85;9.70;;;9.40;59.70;;;;;;348230;28;1051;-57
2023/12/22 00:05:49;;;;;;;13.47;9.83;;;9.40;59.70;;;;;;348204;28;869;-57
2023/12/22 00:05:59;;;;;;;12.25;9.93;;;9.40;59.70;;;;;;348160;28;935;-57
2023/12/22 00:06:11;;;;;;;13.63;9.85;;;9.40;59.70;;;;;;348187;28;1083;-57
2023/12/22 00:06:22;;;;;;;14.90;9.85;;;9.40;59.70;;;;;;348247;28;1012;-56
2023/12/22 00:06:33;;;;;;;15.18;9.82;;;9.40;59.70;;;;;;348131;28;984;-57
2023/12/22 00:06:44;;;;;;;13.85;9.60;;;9.40;59.70;;;;;;348186;28;1096;-57
2023/12/22 00:06:55;;;;;;;12.95;9.52;;;9.40;59.80;;;;;;348231;28;996;-57
2023/12/22 00:07:06;;;;;;;13.75;9.80;;;9.30;59.80;;;;;;348123;28;1902;-57
2023/12/22 00:07:17;;;;;;;12.98;9.82;;;9.30;59.80;;;;;;348068;28;996;-57
2023/12/22 00:07:28;;;;;;;13.77;9.77;;;9.30;59.80;;;;;;348181;28;869;-58
2023/12/22 00:07:39;;;;;;;13.98;9.50;;;9.30;59.80;;;;;;348005;28;1343;-57
2023/12/22 00:07:50;;;;;;;16.15;9.60;;;9.30;59.70;;;;;;348119;28;1003;-56
2023/12/22 00:08:00;;;;;;;16.00;9.57;;;9.30;59.70;;;;;;348088;28;1396;-57
2023/12/22 00:08:11;;;;;;;14.40;9.27;;;9.30;59.80;;;;;;348049;28;939;-57
2023/12/22 00:08:23;;;;;;;14.35;9.48;;;9.40;59.80;;;;;;348077;28;1080;-56
2023/12/22 00:08:34;;;;;;;15.32;9.65;;;9.30;59.90;;;;;;348101;28;1544;-57
2023/12/22 00:08:44;;;;;;;16.10;10.10;;;9.40;59.90;;;;;;348018;28;1081;-57
2023/12/22 00:08:55;;;;;;;14.90;9.63;;;9.30;59.90;;;;;;348125;28;912;-56
2023/12/22 00:09:06;;;;;;;15.90;9.48;;;9.30;59.90;;;;;;348142;28;897;-56
2023/12/22 00:09:17;;;;;;;15.13;9.10;;;9.30;60.00;;;;;;348163;28;1002;-57
2023/12/22 00:09:27;;;;;;;15.90;9.10;;;9.30;60.00;;;;;;348174;28;1397;-57
2023/12/22 00:09:38;;;;;;;15.65;9.20;;;9.30;60.00;;;;;;348204;28;1288;-58
2023/12/22 00:09:49;;;;;;;15.52;9.38;;;9.30;60.00;;;;;;348183;28;1055;-57
2023/12/22 00:10:00;;;;;;;13.80;9.37;;;9.30;60.00;;;;;;348283;28;857;-57
2023/12/22 00:10:10;;;;;;;13.05;9.48;;;9.30;60.00;;;;;;348192;28;1139;-57
2023/12/22 00:10:21;;;;;;;12.75;9.48;;;9.30;60.00;;;;;;348125;28;1095;-57
2023/12/22 00:10:32;;;;;;;13.80;9.80;;;9.30;60.10;;;;;;348202;28;1041;-57
2023/12/22 00:10:43;;;;;;;13.98;9.55;;;9.30;60.10;;;;;;348191;28;1036;-57
2023/12/22 00:10:54;;;;;;;13.13;9.55;;;9.20;60.10;;;;;;348232;28;1036;-57
2023/12/22 00:11:05;;;;;;;14.32;9.38;;;9.30;60.00;;;;;;348205;28;1024;-57
2023/12/22 00:11:15;;;;;;;14.35;9.32;;;9.30;60.00;;;;;;348218;28;1079;-57
2023/12/22 00:11:26;;;;;;;12.70;8.77;;;9.30;60.00;;;;;;348192;28;1637;-58
2023/12/22 00:11:37;;;;;;;12.27;8.93;;;9.30;60.00;;;;;;348230;28;872;-57
2023/12/22 00:11:48;;;;;;;13.05;9.18;;;9.30;60.00;;;;;;348132;28;1166;-57
2023/12/22 00:11:59;;;;;;;16.10;9.55;;;9.30;60.00;;;;;;348265;28;849;-56
2023/12/22 00:12:09;;;;;;;14.80;9.27;;;9.20;60.10;;;;;;348319;28;877;-57
2023/12/22 00:12:20;;;;;;;13.68;9.27;;;9.20;60.10;;;;;;348211;28;1139;-57
2023/12/22 00:12:31;;;;;;;12.70;9.53;;;9.30;60.10;;;;;;348294;28;853;-57
2023/12/22 00:12:41;;;;;;;12.43;9.43;;;9.20;60.10;;;;;;348110;28;1059;-58
2023/12/22 00:12:52;;;;;;;12.45;9.18;;;9.20;60.20;;;;;;348239;28;976;-57
2023/12/22 00:13:03;;;;;;;11.85;8.50;;;9.20;60.20;;;;;;348282;28;829;-58
2023/12/22 00:13:14;;;;;;;12.70;8.88;;;9.20;60.20;;;;;;348247;28;834;-57
2023/12/22 00:13:25;;;;;;;14.03;9.10;;;9.20;60.20;;;;;;348146;28;1047;-57
2023/12/22 00:13:35;;;;;;;13.77;9.10;;;9.20;60.20;;;;;;348218;28;924;-57
2023/12/22 00:13:46;;;;;;;13.82;8.95;;;9.20;60.30;;;;;;348268;28;929;-57
2023/12/22 00:13:57;;;;;;;12.73;9.02;;;9.20;60.30;;;;;;348283;28;869;-57
2023/12/22 00:14:08;;;;;;;11.63;9.07;;;9.20;60.30;;;;;;348285;28;1920;-57
2023/12/22 00:14:18;;;;;;;12.23;9.30;;;9.20;60.30;;;;;;348177;28;1060;-57
2023/12/22 00:14:29;;;;;;;12.48;9.43;;;9.20;60.30;;;;;;348286;28;1087;-58
2023/12/22 00:14:40;;;;;;;13.27;9.38;;;9.20;60.30;;;;;;348237;28;1119;-57
2023/12/22 00:14:51;;;;;;;12.48;8.98;;;9.20;60.30;;;;;;348199;28;1107;-57
2023/12/22 00:15:01;;;;;;;12.48;8.90;;;9.20;60.40;;;;;;348194;28;899;-57
2023/12/22 00:15:12;;;;;;;12.43;8.88;;;9.20;60.40;;;;;;348245;28;1075;-58
2023/12/22 00:15:23;;;;;;;13.53;9.03;;;9.20;60.40;;;;;;348269;28;782;-58
2023/12/22 00:15:34;;;;;;;13.20;8.98;;;9.20;60.40;;;;;;348289;28;1468;-57
2023/12/22 00:15:44;;;;;;;12.70;8.95;;;9.20;60.40;;;;;;348269;28;1039;-56
2023/12/22 00:15:55;;;;;;;12.00;8.88;;;9.20;60.40;;;;;;348163;28;1021;-57
2023/12/22 00:16:06;;;;;;;12.25;8.98;;;9.20;60.40;;;;;;348153;28;1031;-57
2023/12/22 00:16:17;;;;;;;13.83;9.00;;;9.10;60.40;;;;;;348241;28;1094;-58
2023/12/22 00:16:28;;;;;;;13.85;8.93;;;9.10;60.40;;;;;;348183;28;1023;-58
2023/12/22 00:16:38;;;;;;;13.10;8.65;;;9.20;60.40;;;;;;348220;28;1048;-58
2023/12/22 00:16:49;;;;;;;12.02;8.35;;;9.20;60.50;;;;;;348192;28;1096;-57
2023/12/22 00:17:00;;;;;;;12.13;8.23;;;9.20;60.50;;;;;;348144;28;1096;-58
2023/12/22 00:17:11;;;;;;;12.70;8.63;;;9.20;60.50;;;;;;348272;28;888;-57
2023/12/22 00:17:22;;;;;;;12.38;8.80;;;9.10;60.50;;;;;;348262;28;853;-57
2023/12/22 00:17:32;;;;;;;11.43;8.63;;;9.20;60.50;;;;;;348091;28;1118;-59
2023/12/22 00:17:43;;;;;;;11.32;8.40;;;9.20;60.60;;;;;;348232;28;964;-57
2023/12/22 00:17:54;;;;;;;10.43;8.15;;;9.10;60.60;;;;;;348228;28;1083;-57
2023/12/22 00:18:05;;;;;;;10.88;8.30;;;9.20;60.60;;;;;;348154;28;918;-56
2023/12/22 00:18:15;;;;;;;10.75;8.32;;;9.10;60.60;;;;;;348227;28;1301;-57
2023/12/22 00:18:27;;;;;;;12.38;8.40;;;9.20;60.60;;;;;;348297;28;782;-57
2023/12/22 00:18:37;;;;;;;13.30;8.30;;;9.10;60.50;;;;;;348113;28;1012;-56
2023/12/22 00:18:48;;;;;;;12.85;8.40;;;9.10;60.60;;;;;;348189;28;1207;-58
2023/12/22 00:18:59;;;;;;;10.87;8.43;;;9.10;60.60;;;;;;348142;28;1615;-57
2023/12/22 00:19:10;;;;;;;10.88;8.45;;;9.10;60.60;;;;;;348157;28;1040;-56
2023/12/22 00:19:20;;;;;;;10.93;8.40;;;9.10;60.70;;;;;;348257;28;1020;-57
2023/12/22 00:19:31;;;;;;;10.15;8.23;;;9.10;60.60;;;;;;348238;28;865;-56
2023/12/22 00:19:42;;;;;;;11.75;7.97;;;9.10;60.70;;;;;;348048;28;1641;-57
2023/12/22 00:19:53;;;;;;;12.90;7.93;;;9.20;60.70;;;;;;348235;28;1150;-57
2023/12/22 00:20:04;;;;;;;12.45;8.00;;;9.10;60.70;;;;;;348265;28;1012;-58
2023/12/22 00:20:15;;;;;;;11.77;8.38;;;9.10;60.70;;;;;;348168;28;974;-56
2023/12/22 00:20:26;;;;;;;12.40;8.50;;;9.10;60.70;;;;;;348223;28;1248;-56
2023/12/22 00:20:36;;;;;;;12.70;8.57;;;9.10;60.70;;;;;;348214;28;1036;-57
2023/12/22 00:20:47;;;;;;;12.02;8.40;;;9.10;60.70;;;;;;348205;28;1167;-57
2023/12/22 00:20:58;;;;;;;10.82;8.25;;;9.10;60.70;;;;;;348154;28;984;-57
2023/12/22 00:21:12;;;;;;;10.85;8.23;;;9.10;60.80;;;;;;348221;28;1000;-57
2023/12/22 00:21:22;;;;;;;12.48;8.18;;;9.10;60.80;;;;;;348244;28;1106;-57
2023/12/22 00:21:33;;;;;;;12.53;8.20;;;9.00;60.80;;;;;;348191;28;1178;-57
2023/12/22 00:21:44;;;;;;;11.93;8.10;;;9.10;60.80;;;;;;348100;28;1926;-58
2023/12/22 00:21:55;;;;;;;12.13;8.43;;;9.10;60.90;;;;;;348208;28;1484;-56
2023/12/22 00:22:05;;;;;;;13.13;8.73;;;9.10;60.90;;;;;;348278;28;825;-58
2023/12/22 00:22:16;;;;;;;13.50;8.85;;;9.10;60.90;;;;;;348253;28;850;-57
2023/12/22 00:22:27;;;;;;;12.38;8.93;;;9.10;60.90;;;;;;348214;28;1245;-57
2023/12/22 00:22:38;;;;;;;10.97;8.83;;;9.10;60.90;;;;;;348111;28;1079;-57
2023/12/22 00:22:48;;;;;;;11.43;8.65;;;9.10;60.90;;;;;;348211;28;953;-57
2023/12/22 00:22:59;;;;;;;11.68;8.40;;;9.10;60.90;;;;;;348291;28;849;-57
2023/12/22 00:23:10;;;;;;;13.27;8.40;;;9.10;60.90;;;;;;348217;28;1198;-57
2023/12/22 00:23:21;;;;;;;12.90;8.02;;;9.00;60.90;;;;;;348261;28;1035;-58
2023/12/22 00:23:35;;;;;;;12.40;8.03;;;9.10;60.90;;;;;;348202;28;908;-57
2023/12/22 00:23:46;;;;;;;12.63;8.18;;;9.10;60.90;;;;;;348209;28;888;-57
2023/12/22 00:23:57;;;;;;;13.80;8.13;;;9.10;60.90;;;;;;348167;28;1564;-57
2023/12/22 00:24:08;;;;;;;13.93;8.25;;;9.10;60.90;;;;;;348275;28;830;-57
2023/12/22 00:24:19;;;;;;;12.48;8.13;;;9.10;60.90;;;;;;348182;28;988;-57
2023/12/22 00:24:30;;;;;;;10.25;7.80;;;9.10;60.90;;;;;;348223;28;1083;-60
2023/12/22 00:24:40;;;;;;;11.75;8.20;;;9.10;60.90;;;;;;348221;28;1052;-57
2023/12/22 00:24:51;;;;;;;11.33;8.27;;;9.10;61.00;;;;;;348234;28;833;-57
2023/12/22 00:25:02;;;;;;;11.02;8.07;;;9.10;61.00;;;;;;348293;28;813;-57
2023/12/22 00:25:13;;;;;;;10.43;7.63;;;9.00;61.00;;;;;;348211;28;986;-57
2023/12/22 00:25:23;;;;;;;11.02;7.40;;;9.10;61.00;;;;;;348134;28;1299;-57
2023/12/22 00:25:35;;;;;;;11.80;7.53;;;9.10;61.00;;;;;;348229;28;1028;-56
2023/12/22 00:25:45;;;;;;;11.40;7.60;;;9.10;61.00;;;;;;348237;28;976;-56
2023/12/22 00:25:56;;;;;;;11.05;7.72;;;9.10;61.00;;;;;;348183;28;891;-57
2023/12/22 00:26:07;;;;;;;10.88;7.47;;;9.10;61.00;;;;;;348280;28;960;-58
2023/12/22 00:26:18;;;;;;;11.17;7.73;;;9.10;61.00;;;;;;348224;28;889;-58
2023/12/22 00:26:28;;;;;;;11.20;7.95;;;9.00;61.00;;;;;;348083;28;1131;-57
2023/12/22 00:26:39;;;;;;;10.43;8.10;;;9.10;61.00;;;;;;348230;28;1004;-58
2023/12/22 00:26:50;;;;;;;10.23;7.80;;;9.00;61.00;;;;;;348204;28;1044;-57
2023/12/22 00:27:01;;;;;;;10.90;7.63;;;9.10;61.00;;;;;;348072;28;1910;-56
2023/12/22 00:27:11;;;;;;;11.27;7.50;;;9.00;61.00;;;;;;348187;28;1155;-57
2023/12/22 00:27:22;;;;;;;11.32;7.50;;;9.10;61.00;;;;;;348247;28;976;-56
2023/12/22 00:27:33;;;;;;;10.40;7.60;;;9.10;61.00;;;;;;348187;28;998;-57
2023/12/22 00:27:44;;;;;;;9.48;7.60;;;9.00;61.00;;;;;;348251;28;980;-58
2023/12/22 00:27:54;;;;;;;9.15;7.63;;;9.10;61.00;;;;;;348209;28;1507;-57
2023/12/22 00:28:05;;;;;;;9.67;7.53;;;9.00;61.00;;;;;;348164;28;1086;-57
2023/12/22 00:28:16;;;;;;;10.32;7.43;;;9.10;61.00;;;;;;348267;28;826;-58
2023/12/22 00:28:27;;;;;;;10.05;7.20;;;9.10;61.00;;;;;;348256;28;838;-58
2023/12/22 00:28:38;;;;;;;10.93;7.20;;;9.00;61.00;;;;;;348132;28;1052;-58
2023/12/22 00:28:49;;;;;;;11.32;7.82;;;9.00;61.00;;;;;;348273;28;901;-58
2023/12/22 00:28:59;;;;;;;12.70;8.30;;;9.00;61.00;;;;;;348204;28;854;-56
2023/12/22 00:29:10;;;;;;;12.23;8.35;;;9.00;61.00;;;;;;348139;28;1473;-56
2023/12/22 00:29:21;;;;;;;10.37;7.77;;;9.00;61.00;;;;;;348246;28;992;-57
2023/12/22 00:29:35;;;;;;;8.77;7.38;;;9.00;61.00;;;;;;348214;28;1031;-58
2023/12/22 00:29:46;;;;;;;8.96;7.20;;;9.00;61.00;;;;;;348111;28;1048;-57
2023/12/22 00:29:57;;;;;;;9.80;7.27;;;9.00;61.10;;;;;;348250;28;1016;-57
2023/12/22 00:30:08;;;;;;;10.02;7.40;;;9.00;61.10;;;;;;348204;28;952;-57
2023/12/22 00:30:19;;;;;;;9.85;7.50;;;9.00;61.00;;;;;;348188;28;967;-57
2023/12/22 00:30:29;;;;;;;9.35;7.28;;;9.00;61.00;;;;;;348205;28;1097;-57
2023/12/22 00:30:40;;;;;;;9.73;6.93;;;9.00;61.00;;;;;;348238;28;1001;-57
2023/12/22 00:30:51;;;;;;;9.88;7.15;;;9.00;61.00;;;;;;348152;28;930;-58
2023/12/22 00:31:02;;;;;;;10.52;7.13;;;9.00;61.00;;;;;;348219;28;1834;-57
2023/12/22 00:31:13;;;;;;;9.80;7.25;;;9.00;60.90;;;;;;348177;28;1091;-57
2023/12/22 00:31:24;;;;;;;9.50;7.05;;;9.00;60.80;;;;;;348172;28;907;-57
2023/12/22 00:31:34;;;;;;;9.57;6.97;;;9.10;60.80;;;;;;348194;28;1055;-57
2023/12/22 00:31:45;;;;;;;9.40;7.07;;;9.10;60.80;;;;;;348224;28;1024;-59
2023/12/22 00:31:56;;;;;;;10.05;7.38;;;9.00;60.80;;;;;;348140;28;1646;-57
2023/12/22 00:32:09;;;;;;;9.35;7.35;;;9.00;60.90;;;;;;348185;28;2633;-56
2023/12/22 00:32:20;;;;;;;9.40;7.38;;;9.10;60.80;;;;;;348262;28;1040;-56
2023/12/22 00:32:31;;;;;;;10.32;7.53;;;9.10;60.80;;;;;;348111;28;1088;-57
2023/12/22 00:32:41;;;;;;;11.95;7.72;;;9.10;60.80;;;;;;348184;28;1806;-56
2023/12/22 00:32:53;;;;;;;11.23;7.55;;;9.10;60.70;;;;;;348203;28;1012;-57
2023/12/22 00:33:04;;;;;;;10.23;7.45;;;9.10;60.70;;;;;;348152;28;926;-56
2023/12/22 00:33:15;;;;;;;9.00;7.07;;;9.10;60.70;;;;;;348224;28;1107;-56
2023/12/22 00:33:26;;;;;;;8.88;6.95;;;9.10;60.70;;;;;;348198;28;1028;-56
2023/12/22 00:33:37;;;;;;;8.52;6.80;;;9.10;60.60;;;;;;348140;28;1047;-56
2023/12/22 00:33:48;;;;;;;8.80;7.00;;;9.10;60.60;;;;;;348209;28;1010;-56
2023/12/22 00:33:58;;;;;;;9.10;6.93;;;9.10;60.60;;;;;;348236;28;881;-58
2023/12/22 00:34:09;;;;;;;9.95;6.93;;;9.10;60.60;;;;;;348114;28;1963;-57
2023/12/22 00:34:22;;;;;;;10.90;7.18;;;9.10;60.60;;;;;;348250;28;1517;-57
2023/12/22 00:34:33;;;;;;;11.60;7.78;;;9.10;60.50;;;;;;348171;28;1103;-57
2023/12/22 00:34:43;;;;;;;12.57;7.90;;;9.10;60.60;;;;;;348134;28;1355;-57
2023/12/22 00:34:54;;;;;;;12.05;7.75;;;9.10;60.50;;;;;;348266;28;857;-57
2023/12/22 00:35:05;;;;;;;9.68;7.15;;;9.10;60.50;;;;;;348198;28;1159;-56
2023/12/22 00:35:16;;;;;;;8.32;7.10;;;9.10;60.50;;;;;;348074;28;1111;-56
2023/12/22 00:35:27;;;;;;;8.93;7.28;;;9.10;60.40;;;;;;348226;28;1820;-56
2023/12/22 00:35:37;;;;;;;10.02;7.65;;;9.10;60.50;;;;;;348170;28;1285;-56
2023/12/22 00:35:48;;;;;;;11.32;7.53;;;9.10;60.50;;;;;;348244;28;1066;-56
2023/12/22 00:35:59;;;;;;;12.13;7.40;;;9.00;60.50;;;;;;348250;28;964;-57
2023/12/22 00:36:10;;;;;;;11.38;7.15;;;9.10;60.50;;;;;;348142;28;1087;-56
2023/12/22 00:36:24;;;;;;;11.35;7.40;;;9.10;60.50;;;;;;348271;28;846;-57
2023/12/22 00:36:34;;;;;;;11.50;7.22;;;9.10;60.50;;;;;;348199;28;992;-56
2023/12/22 00:36:45;;;;;;;11.07;7.13;;;9.00;60.40;;;;;;348233;28;1019;-56
2023/12/22 00:36:56;;;;;;;9.80;6.88;;;9.10;60.40;;;;;;348147;28;1005;-57
2023/12/22 00:37:07;;;;;;;9.57;7.10;;;9.10;60.30;;;;;;348209;28;834;-57
2023/12/22 00:37:17;;;;;;;10.65;7.43;;;9.10;60.30;;;;;;348179;28;1119;-57
2023/12/22 00:37:28;;;;;;;12.20;7.53;;;9.10;60.30;;;;;;348231;28;826;-56
2023/12/22 00:37:39;;;;;;;13.27;7.68;;;9.10;60.30;;;;;;348196;28;1091;-58
2023/12/22 00:37:50;;;;;;;14.13;7.68;;;9.10;60.30;;;;;;348111;28;1073;-57
2023/12/22 00:38:00;;;;;;;12.43;7.50;;;9.10;60.30;;;;;;348219;28;1343;-57
2023/12/22 00:38:11;;;;;;;10.73;7.07;;;9.00;60.30;;;;;;348185;28;1384;-57
2023/12/22 00:38:22;;;;;;;9.07;6.80;;;9.00;60.30;;;;;;348150;28;1043;-57
2023/12/22 00:38:33;;;;;;;9.77;6.80;;;9.10;60.30;;;;;;348253;28;790;-58
2023/12/22 00:38:43;;;;;;;10.20;6.78;;;9.10;60.30;;;;;;348098;28;1024;-57
2023/12/22 00:38:54;;;;;;;10.17;6.80;;;9.10;60.20;;;;;;348170;28;976;-56
2023/12/22 00:39:05;;;;;;;9.50;7.00;;;9.10;60.20;;;;;;348224;28;912;-57
2023/12/22 00:39:16;;;;;;;9.40;7.10;;;9.00;60.20;;;;;;348227;28;865;-56
2023/12/22 00:39:26;;;;;;;9.75;7.28;;;9.00;60.20;;;;;;348243;28;842;-56
2023/12/22 00:39:37;;;;;;;8.82;7.00;;;9.00;60.10;;;;;;348118;28;1013;-58
2023/12/22 00:39:48;;;;;;;8.50;6.88;;;9.00;60.10;;;;;;348182;28;1336;-56
2023/12/22 00:39:59;;;;;;;8.38;6.63;;;9.00;60.10;;;;;;348289;28;838;-57
2023/12/22 00:40:10;;;;;;;8.33;6.90;;;9.10;60.00;;;;;;348206;28;1103;-58
2023/12/22 00:40:21;;;;;;;8.80;6.90;;;9.00;60.00;;;;;;348234;28;860;-56
2023/12/22 00:40:32;;;;;;;10.15;6.93;;;9.00;59.90;;;;;;348182;28;1904;-57
2023/12/22 00:40:42;;;;;;;10.30;6.82;;;9.00;59.90;;;;;;348119;28;2579;-56
2023/12/22 00:40:53;;;;;;;11.05;6.93;;;9.10;59.80;;;;;;348220;28;1024;-57
2023/12/22 00:41:04;;;;;;;10.07;6.85;;;9.00;59.90;;;;;;348238;28;850;-56
2023/12/22 00:41:15;;;;;;;10.88;6.78;;;9.00;59.80;;;;;;348249;28;960;-58
2023/12/22 00:41:25;;;;;;;9.80;6.70;;;9.00;59.90;;;;;;348128;28;1091;-56
2023/12/22 00:41:36;;;;;;;9.73;6.60;;;9.00;59.90;;;;;;348275;28;949;-56
2023/12/22 00:41:47;;;;;;;9.55;6.68;;;9.00;59.90;;;;;;348212;28;1099;-57
2023/12/22 00:41:58;;;;;;;9.95;6.80;;;9.00;59.90;;;;;;348174;28;1479;-58
2023/12/22 00:42:09;;;;;;;9.95;6.78;;;9.00;59.90;;;;;;348215;28;822;-56
2023/12/22 00:42:19;;;;;;;9.23;6.82;;;9.00;59.90;;;;;;348229;28;1052;-56
2023/12/22 00:42:30;;;;;;;9.40;7.07;;;9.00;59.90;;;;;;348216;28;1063;-56
2023/12/22 00:42:41;;;;;;;9.38;7.38;;;9.00;59.90;;;;;;348228;28;854;-56
2023/12/22 00:42:51;;;;;;;9.90;7.47;;;9.00;60.00;;;;;;348151;28;1183;-55
2023/12/22 00:43:03;;;;;;;11.05;7.35;;;9.00;59.90;;;;;;348276;28;949;-57
2023/12/22 00:43:13;;;;;;;10.98;7.40;;;9.00;59.90;;;;;;348108;28;1147;-57
2023/12/22 00:43:24;;;;;;;11.05;7.70;;;9.00;59.90;;;;;;348208;28;1019;-57
2023/12/22 00:43:35;;;;;;;10.13;7.60;;;9.00;59.90;;;;;;348199;28;1087;-56
2023/12/22 00:43:46;;;;;;;9.48;7.18;;;8.90;59.90;;;;;;348183;28;1098;-56
2023/12/22 00:43:56;;;;;;;9.23;7.07;;;9.00;60.00;;;;;;348206;28;1087;-56
2023/12/22 00:44:07;;;;;;;10.65;7.10;;;9.00;60.00;;;;;;348146;28;1358;-58
2023/12/22 00:44:18;;;;;;;11.88;7.30;;;9.00;60.00;;;;;;348197;28;1812;-56
2023/12/22 00:44:29;;;;;;;12.13;7.33;;;9.00;59.90;;;;;;348239;28;920;-58
2023/12/22 00:44:40;;;;;;;10.93;7.25;;;9.00;59.90;;;;;;348154;28;1139;-57
2023/12/22 00:44:51;;;;;;;11.00;7.30;;;9.00;59.90;;;;;;348182;28;1170;-57
2023/12/22 00:45:02;;;;;;;11.18;7.45;;;9.00;60.00;;;;;;348096;28;1040;-57
2023/12/22 00:45:13;;;;;;;11.57;7.60;;;8.90;59.90;;;;;;348264;28;939;-56
2023/12/22 00:45:24;;;;;;;10.18;7.63;;;9.00;59.90;;;;;;348238;28;834;-56
2023/12/22 00:45:34;;;;;;;9.77;7.50;;;8.90;60.00;;;;;;348156;28;1087;-56
2023/12/22 00:45:45;;;;;;;10.07;7.23;;;8.90;60.00;;;;;;348138;28;1115;-57
2023/12/22 00:45:57;;;;;;;10.02;7.13;;;8.90;60.00;;;;;;348095;28;1083;-56
2023/12/22 00:46:08;;;;;;;9.30;7.13;;;8.90;60.00;;;;;;348223;28;1060;-57
2023/12/22 00:46:19;;;;;;;9.10;7.00;;;8.90;60.00;;;;;;348253;28;1063;-57
2023/12/22 00:46:30;;;;;;;10.27;7.18;;;8.90;60.00;;;;;;348149;28;1163;-56
2023/12/22 00:46:41;;;;;;;10.90;7.27;;;8.90;59.90;;;;;;348191;28;1601;-57
2023/12/22 00:46:52;;;;;;;11.38;7.75;;;8.90;60.00;;;;;;348079;28;1551;-56
2023/12/22 00:47:02;;;;;;;10.93;7.28;;;8.90;60.00;;;;;;348118;28;1901;-58
2023/12/22 00:47:13;;;;;;;10.27;6.95;;;8.90;60.00;;;;;;348274;28;892;-58
2023/12/22 00:47:24;;;;;;;10.30;7.15;;;8.90;60.10;;;;;;348225;28;1016;-55
2023/12/22 00:47:35;;;;;;;10.90;7.55;;;8.90;60.10;;;;;;348182;28;1090;-57
2023/12/22 00:47:46;;;;;;;11.88;7.72;;;8.90;60.10;;;;;;348134;28;1019;-57
2023/12/22 00:47:57;;;;;;;11.88;7.65;;;8.90;60.20;;;;;;348220;28;1203;-57
2023/12/22 00:48:08;;;;;;;12.02;7.63;;;8.90;60.20;;;;;;348239;28;842;-58
2023/12/22 00:48:18;;;;;;;12.23;7.63;;;8.80;60.10;;;;;;348202;28;853;-57
2023/12/22 00:48:29;;;;;;;11.82;7.78;;;8.90;60.10;;;;;;348234;28;1020;-57
2023/12/22 00:48:40;;;;;;;11.05;8.05;;;8.90;60.10;;;;;;348133;28;1025;-56
2023/12/22 00:48:51;;;;;;;10.00;7.88;;;8.80;60.10;;;;;;348211;28;1028;-56
2023/12/22 00:49:01;;;;;;;9.63;7.63;;;8.90;60.10;;;;;;348259;28;893;-56
2023/12/22 00:49:12;;;;;;;9.07;7.40;;;8.80;60.00;;;;;;348192;28;841;-58
2023/12/22 00:49:23;;;;;;;9.03;7.27;;;8.80;60.00;;;;;;348192;28;988;-57
2023/12/22 00:49:34;;;;;;;9.73;7.18;;;8.80;60.10;;;;;;348165;28;1208;-56
2023/12/22 00:49:45;;;;;;;10.15;7.30;;;8.80;60.20;;;;;;348227;28;1070;-56
2023/12/22 00:49:55;;;;;;;10.32;7.03;;;8.90;60.20;;;;;;348202;28;908;-56
2023/12/22 00:50:07;;;;;;;9.73;6.95;;;8.80;60.20;;;;;;348225;28;1174;-57
2023/12/22 00:50:18;;;;;;;9.52;6.88;;;8.80;60.20;;;;;;348223;28;1129;-56
2023/12/22 00:50:29;;;;;;;9.35;7.28;;;8.80;60.20;;;;;;348152;28;1023;-56
2023/12/22 00:50:40;;;;;;;9.90;7.30;;;8.80;60.20;;;;;;348219;28;1026;-56
2023/12/22 00:50:50;;;;;;;9.95;7.50;;;8.80;60.20;;;;;;348287;28;829;-55
2023/12/22 00:51:01;;;;;;;9.35;7.25;;;8.80;60.10;;;;;;348206;28;1087;-56
2023/12/22 00:51:12;;;;;;;9.35;7.20;;;8.80;60.10;;;;;;348245;28;809;-56
2023/12/22 00:51:23;;;;;;;9.90;6.93;;;8.80;60.10;;;;;;348155;28;908;-57
2023/12/22 00:51:34;;;;;;;10.65;6.88;;;8.80;60.20;;;;;;348232;28;981;-56
2023/12/22 00:51:44;;;;;;;10.60;6.87;;;8.80;60.30;;;;;;348226;28;899;-57
2023/12/22 00:51:55;;;;;;;10.18;6.80;;;8.80;60.20;;;;;;348181;28;1110;-57
2023/12/22 00:52:06;;;;;;;9.75;6.85;;;8.80;60.20;;;;;;348254;28;1058;-56
2023/12/22 00:52:17;;;;;;;9.90;6.93;;;8.80;60.20;;;;;;348172;28;995;-55
2023/12/22 00:52:27;;;;;;;9.75;6.82;;;8.80;60.20;;;;;;348214;28;1008;-57
2023/12/22 00:52:38;;;;;;;10.17;6.90;;;8.80;60.20;;;;;;348226;28;967;-56
2023/12/22 00:52:49;;;;;;;10.25;6.95;;;8.80;60.10;;;;;;348253;28;849;-56
2023/12/22 00:53:00;;;;;;;10.80;7.28;;;8.80;60.10;;;;;;348207;28;1083;-56
2023/12/22 00:53:10;;;;;;;10.23;7.32;;;8.80;60.10;;;;;;348164;28;1102;-56
2023/12/22 00:53:21;;;;;;;8.85;7.25;;;8.80;60.10;;;;;;348268;28;1007;-55
2023/12/22 00:53:32;;;;;;;8.97;7.27;;;8.80;60.10;;;;;;348207;28;1051;-56
2023/12/22 00:53:43;;;;;;;9.60;7.13;;;8.80;60.10;;;;;;348206;28;979;-56
2023/12/22 00:53:53;;;;;;;9.60;6.95;;;8.80;60.10;;;;;;348193;28;1119;-57
2023/12/22 00:54:04;;;;;;;9.70;6.90;;;8.80;60.00;;;;;;348125;28;1035;-56
2023/12/22 00:54:15;;;;;;;8.75;6.97;;;8.80;60.00;;;;;;348206;28;1299;-55
2023/12/22 00:54:27;;;;;;;9.32;7.00;;;8.70;60.10;;;;;;348211;28;2326;-57
2023/12/22 00:54:37;;;;;;;9.80;7.15;;;8.80;60.10;;;;;;348455;28;1109;-57
2023/12/22 00:54:48;;;;;;;11.02;7.45;;;8.70;60.10;;;;;;348501;28;968;-58
2023/12/22 00:54:59;;;;;;;11.27;7.30;;;8.80;60.10;;;;;;348445;28;889;-57
2023/12/22 00:55:10;;;;;;;10.93;7.10;;;8.70;60.10;;;;;;348517;28;904;-57
2023/12/22 00:55:21;;;;;;;10.43;7.03;;;8.70;60.20;;;;;;348451;28;1054;-56
2023/12/22 00:55:32;;;;;;;10.43;7.10;;;8.70;60.20;;;;;;348477;28;821;-58
2023/12/22 00:55:43;;;;;;;9.93;7.07;;;8.80;60.10;;;;;;348458;28;1059;-57
2023/12/22 00:55:53;;;;;;;10.63;7.38;;;8.70;60.10;;;;;;348322;28;1040;-56
2023/12/22 00:56:05;;;;;;;10.27;7.30;;;8.70;60.10;;;;;;348478;28;892;-57
2023/12/22 00:56:16;;;;;;;10.57;7.07;;;8.70;60.10;;;;;;348368;28;2060;-57
2023/12/22 00:56:27;;;;;;;10.43;6.90;;;8.70;60.00;;;;;;348470;28;821;-57
2023/12/22 00:56:38;;;;;;;9.85;6.75;;;8.70;60.00;;;;;;348449;28;980;-57
2023/12/22 00:56:48;;;;;;;10.80;7.07;;;8.70;60.00;;;;;;348411;28;1033;-57
2023/12/22 00:56:59;;;;;;;11.18;7.25;;;8.70;60.00;;;;;;348287;28;2211;-57
2023/12/22 00:57:11;;;;;;;11.43;7.45;;;8.70;60.00;;;;;;348396;28;1468;-57
2023/12/22 00:57:21;;;;;;;9.98;7.13;;;8.70;60.00;;;;;;348407;28;1126;-56
2023/12/22 00:57:32;;;;;;;9.27;7.07;;;8.70;60.00;;;;;;348508;28;893;-56
2023/12/22 00:57:43;;;;;;;9.60;6.90;;;8.70;60.00;;;;;;348339;28;2517;-57
2023/12/22 00:57:54;;;;;;;9.77;6.90;;;8.70;60.00;;;;;;348507;28;1027;-56
2023/12/22 00:58:05;;;;;;;10.18;6.85;;;8.70;59.90;;;;;;348444;28;1095;-56
2023/12/22 00:58:15;;;;;;;9.90;6.60;;;8.70;59.90;;;;;;348467;28;1043;-57
2023/12/22 00:58:26;;;;;;;10.23;6.72;;;8.70;59.90;;;;;;348415;28;1024;-57
2023/12/22 00:58:37;;;;;;;9.65;6.80;;;8.70;59.90;;;;;;348459;28;1021;-56